createdAt,value
2022-11-29T00:01:39.878Z,64.59
2022-11-29T00:04:06.586Z,64.84
2022-11-29T00:06:34.529Z,64.73
2022-11-29T00:09:08.079Z,64.67
2022-11-29T00:11:55.584Z,64.29
2022-11-29T00:14:23.330Z,64.76
2022-11-29T00:17:03.178Z,64.87
2022-11-29T00:19:31.675Z,64.50
2022-11-29T00:21:58.650Z,64.60
2022-11-29T00:24:25.357Z,64.61
2022-11-29T00:26:52.020Z,64.55
2022-11-29T00:29:18.661Z,64.69
2022-11-29T00:31:45.562Z,64.46
2022-11-29T00:34:12.836Z,64.54
2022-11-29T00:36:39.823Z,64.70
2022-11-29T00:39:07.121Z,64.49
2022-11-29T00:41:34.140Z,64.50
2022-11-29T00:44:00.972Z,64.94
2022-11-29T00:46:27.655Z,64.82
2022-11-29T00:48:54.292Z,64.59
2022-11-29T00:51:20.933Z,64.72
2022-11-29T00:53:47.548Z,64.74
2022-11-29T00:56:14.196Z,64.88
2022-11-29T00:58:43.612Z,64.54
2022-11-29T01:01:10.711Z,64.22
2022-11-29T01:03:37.458Z,64.44
2022-11-29T01:06:06.965Z,64.62
2022-11-29T01:08:34.405Z,64.81
2022-11-29T01:11:03.400Z,64.98
2022-11-29T01:13:30.066Z,64.69
2022-11-29T01:15:59.957Z,64.33
2022-11-29T01:18:27.422Z,64.36
2022-11-29T01:21:07.242Z,64.29
2022-11-29T01:23:35.339Z,64.60
2022-11-29T01:26:10.696Z,64.61
2022-11-29T01:28:38.497Z,64.34
2022-11-29T01:31:09.599Z,64.49
2022-11-29T01:33:37.043Z,64.50
2022-11-29T01:36:04.235Z,64.51
2022-11-29T01:38:31.220Z,64.55
2022-11-29T01:41:14.680Z,64.81
2022-11-29T01:43:55.484Z,64.54
2022-11-29T01:46:22.498Z,64.74
2022-11-29T01:48:50.297Z,64.53
2022-11-29T01:51:17.228Z,64.81
2022-11-29T01:53:44.175Z,64.45
2022-11-29T01:56:14.360Z,64.72
2022-11-29T01:58:43.962Z,64.38
2022-11-29T02:01:11.034Z,64.83
2022-11-29T02:03:37.815Z,64.51
2022-11-29T02:06:06.747Z,64.53
2022-11-29T02:08:41.909Z,64.82
2022-11-29T02:11:32.787Z,64.64
2022-11-29T02:14:21.029Z,64.57
2022-11-29T02:16:47.719Z,64.65
2022-11-29T02:19:35.904Z,64.29
2022-11-29T02:22:09.527Z,64.40
2022-11-29T02:25:11.137Z,64.24
2022-11-29T02:27:53.410Z,64.79
2022-11-29T02:30:28.319Z,65.04
2022-11-29T02:33:16.465Z,64.56
2022-11-29T02:35:55.195Z,64.80
2022-11-29T02:38:39.864Z,64.76
2022-11-29T02:41:18.165Z,64.62
2022-11-29T02:44:09.599Z,65.01
2022-11-29T02:47:09.243Z,65.07
2022-11-29T02:50:21.404Z,65.06
2022-11-29T02:53:04.032Z,65.12
2022-11-29T02:55:36.280Z,64.77
2022-11-29T02:58:25.153Z,64.78
2022-11-29T03:04:23.682Z,64.43
2022-11-29T03:07:01.862Z,64.51
2022-11-29T03:09:43.637Z,64.46
2022-11-29T03:12:25.187Z,64.81
2022-11-29T03:15:19.149Z,64.82
2022-11-29T03:17:57.309Z,64.60
2022-11-29T03:20:32.833Z,64.82
2022-11-29T03:23:19.151Z,64.85
2022-11-29T03:29:07.548Z,65.12
2022-11-29T03:31:39.786Z,65.26
2022-11-29T03:34:14.552Z,64.70
2022-11-29T03:36:59.617Z,64.91
2022-11-29T03:39:38.190Z,64.76
2022-11-29T03:42:11.124Z,65.12
2022-11-29T03:44:54.580Z,65.02
2022-11-29T03:47:28.313Z,65.01
2022-11-29T03:50:03.381Z,65.30
2022-11-29T03:52:38.518Z,65.27
2022-11-29T03:55:20.251Z,65.00
2022-11-29T03:58:04.666Z,65.05
2022-11-29T04:01:01.741Z,64.97
2022-11-29T04:03:33.382Z,65.18
2022-11-29T04:06:10.958Z,65.04
2022-11-29T04:09:02.985Z,65.21
2022-11-29T04:11:58.947Z,64.77
2022-11-29T04:14:44.015Z,65.12
2022-11-29T04:17:28.923Z,65.25
2022-11-29T04:20:04.476Z,64.92
2022-11-29T04:22:52.534Z,65.26
2022-11-29T04:25:57.567Z,65.20
2022-11-29T04:28:45.943Z,64.92
2022-11-29T04:31:21.669Z,65.10
2022-11-29T04:34:03.394Z,64.89
2022-11-29T04:36:48.123Z,64.89
2022-11-29T04:39:57.240Z,64.81
2022-11-29T04:42:46.289Z,65.00
2022-11-29T04:45:31.626Z,64.93
2022-11-29T04:48:04.593Z,65.67
2022-11-29T04:51:08.962Z,64.93
2022-11-29T04:53:57.947Z,65.28
2022-11-29T04:56:41.183Z,65.33
2022-11-29T04:59:23.188Z,65.23
2022-11-29T05:01:58.730Z,65.28
2022-11-29T05:04:40.826Z,65.60
2022-11-29T05:07:17.576Z,65.67
2022-11-29T05:09:46.947Z,65.52
2022-11-29T05:12:42.969Z,65.52
2022-11-29T05:15:28.066Z,64.73
2022-11-29T05:18:13.171Z,65.39
2022-11-29T05:20:51.725Z,65.12
2022-11-29T05:23:19.024Z,65.47
2022-11-29T05:26:00.096Z,65.26
2022-11-29T05:28:42.248Z,65.39
2022-11-29T05:31:46.372Z,65.17
2022-11-29T05:34:33.372Z,65.20
2022-11-29T05:37:16.862Z,65.19
2022-11-29T05:39:43.402Z,65.32
2022-11-29T05:42:25.404Z,65.33
2022-11-29T05:45:08.426Z,65.20
2022-11-29T05:47:47.739Z,65.52
2022-11-29T05:50:20.355Z,65.42
2022-11-29T05:53:11.527Z,65.41
2022-11-29T05:55:51.713Z,65.46
2022-11-29T05:58:47.950Z,65.90
2022-11-29T06:01:17.705Z,65.68
2022-11-29T06:04:19.422Z,65.69
2022-11-29T06:07:03.375Z,65.43
2022-11-29T06:09:40.664Z,65.37
2022-11-29T06:12:20.676Z,65.75
2022-11-29T06:15:19.217Z,65.10
2022-11-29T06:17:57.705Z,66.20
2022-11-29T06:20:40.151Z,65.92
2022-11-29T06:23:30.417Z,65.53
2022-11-29T06:26:19.232Z,65.02
2022-11-29T06:29:19.163Z,65.21
2022-11-29T06:31:57.733Z,65.47
2022-11-29T06:34:59.707Z,65.47
2022-11-29T06:37:38.485Z,65.66
2022-11-29T06:40:09.915Z,65.74
2022-11-29T06:42:36.488Z,65.70
2022-11-29T06:45:05.412Z,65.44
2022-11-29T06:47:42.547Z,65.54
2022-11-29T06:50:40.949Z,65.48
2022-11-29T06:53:41.744Z,65.61
2022-11-29T06:56:29.413Z,65.25
2022-11-29T06:59:20.074Z,65.44
2022-11-29T07:02:12.882Z,65.85
2022-11-29T07:05:02.927Z,65.51
2022-11-29T07:07:29.783Z,65.35
2022-11-29T07:10:00.911Z,65.74
2022-11-29T07:12:27.902Z,65.32
2022-11-29T07:14:54.926Z,65.83
2022-11-29T07:17:37.681Z,65.85
2022-11-29T07:20:04.442Z,65.40
2022-11-29T07:23:00.194Z,65.38
2022-11-29T07:25:32.946Z,65.66
2022-11-29T07:28:48.395Z,65.88
2022-11-29T07:31:15.105Z,65.79
2022-11-29T07:33:50.621Z,65.78
2022-11-29T07:36:37.606Z,65.91
2022-11-29T07:39:22.307Z,65.69
2022-11-29T07:42:27.150Z,65.71
2022-11-29T07:45:07.624Z,65.54
2022-11-29T07:47:35.932Z,65.52
2022-11-29T07:50:03.378Z,66.44
2022-11-29T08:36:37.393Z,65.80
2022-11-29T08:39:09.240Z,65.49
2022-11-29T08:41:36.545Z,65.96
2022-11-29T08:44:05.522Z,66.49
2022-11-29T08:46:50.727Z,66.83
2022-11-29T08:49:17.625Z,66.74
2022-11-29T08:51:44.431Z,66.32
2022-11-29T08:54:10.940Z,66.28
2022-11-29T08:59:24.540Z,66.13
2022-11-29T09:01:51.320Z,65.98
2022-11-29T09:04:17.925Z,65.47
2022-11-29T09:06:44.580Z,65.41
2022-11-29T09:09:11.232Z,65.43
2022-11-29T09:11:37.837Z,65.51
2022-11-29T09:14:07.136Z,65.50
2022-11-29T09:16:37.095Z,65.45
2022-11-29T09:19:05.205Z,65.69
2022-11-29T09:21:34.794Z,65.56
2022-11-29T09:24:06.240Z,65.42
2022-11-29T09:26:35.808Z,65.71
2022-11-29T09:29:05.743Z,65.32
2022-11-29T09:31:36.106Z,65.38
2022-11-29T09:34:02.824Z,65.14
2022-11-29T09:39:18.662Z,64.96
2022-11-29T09:42:32.627Z,64.81
2022-11-29T09:45:05.536Z,64.86
2022-11-29T09:47:42.420Z,64.77
2022-11-29T09:50:24.171Z,64.67
2022-11-29T09:53:26.051Z,64.53
2022-11-29T09:56:16.419Z,64.56
2022-11-29T09:58:55.479Z,64.69
2022-11-29T10:01:31.264Z,64.29
2022-11-29T10:04:05.223Z,64.59
2022-11-29T10:06:38.920Z,64.74
2022-11-29T10:09:24.193Z,64.83
2022-11-29T10:12:09.003Z,64.77
2022-11-29T10:14:56.363Z,65.03
2022-11-29T10:17:36.330Z,65.00
2022-11-29T10:20:26.101Z,64.64
2022-11-29T10:22:59.511Z,64.65
2022-11-29T10:25:38.006Z,64.69
2022-11-29T10:28:09.501Z,64.73
2022-11-29T10:30:36.710Z,64.91
2022-11-29T10:33:10.029Z,64.91
2022-11-29T10:35:37.069Z,64.94
2022-11-29T10:38:29.779Z,64.61
2022-11-29T10:40:57.694Z,64.64
2022-11-29T10:43:26.028Z,64.35
2022-11-29T10:45:56.278Z,64.41
2022-11-29T10:48:29.045Z,64.18
2022-11-29T10:50:56.039Z,64.22
2022-11-29T10:53:30.849Z,64.22
2022-11-29T10:56:06.659Z,64.04
2022-11-29T10:58:34.075Z,63.99
2022-11-29T11:01:08.031Z,64.05
2022-11-29T11:03:52.977Z,63.78
2022-11-29T11:06:22.271Z,63.82
2022-11-29T11:08:53.564Z,63.91
2022-11-29T11:11:27.130Z,64.10
2022-11-29T11:14:01.356Z,64.03
2022-11-29T11:16:31.582Z,64.12
2022-11-29T11:19:31.602Z,64.06
2022-11-29T11:22:00.778Z,64.19
2022-11-29T11:24:40.225Z,63.92
2022-11-29T11:27:07.512Z,64.05
2022-11-29T11:29:39.958Z,64.05
2022-11-29T11:32:18.692Z,64.17
2022-11-29T11:34:51.403Z,63.96
2022-11-29T11:37:22.896Z,63.89
2022-11-29T11:39:53.344Z,64.02
2022-11-29T11:42:39.542Z,64.24
2022-11-29T11:45:12.658Z,64.28
2022-11-29T11:47:44.388Z,64.32
2022-11-29T11:50:29.173Z,64.21
2022-11-29T11:52:58.262Z,64.20
2022-11-29T11:55:33.633Z,64.48
2022-11-29T11:58:10.390Z,64.15
2022-11-29T12:01:04.315Z,64.22
2022-11-29T12:03:35.431Z,64.22
2022-11-29T12:06:30.419Z,64.16
2022-11-29T12:09:10.105Z,64.14
2022-11-29T12:12:15.217Z,63.83
2022-11-29T12:15:01.572Z,64.05
2022-11-29T12:17:31.396Z,63.87
2022-11-29T12:20:10.286Z,63.90
2022-11-29T12:23:02.436Z,63.74
2022-11-29T12:25:39.218Z,63.91
2022-11-29T12:28:20.102Z,63.67
2022-11-29T12:31:00.996Z,63.87
2022-11-29T12:33:42.840Z,64.16
2022-11-29T12:36:24.683Z,63.81
2022-11-29T12:39:09.770Z,63.81
2022-11-29T12:41:49.509Z,63.82
2022-11-29T12:44:35.264Z,63.79
2022-11-29T12:47:35.354Z,63.80
2022-11-29T12:50:28.169Z,63.81
2022-11-29T12:53:25.629Z,64.01
2022-11-29T12:56:06.292Z,63.89
2022-11-29T12:59:06.268Z,63.54
2022-11-29T13:01:48.418Z,63.41
2022-11-29T13:05:00.210Z,63.57
2022-11-29T13:07:38.296Z,63.49
2022-11-29T13:10:49.813Z,63.57
2022-11-29T13:13:43.441Z,63.68
2022-11-29T13:16:26.318Z,63.53
2022-11-29T13:19:05.266Z,63.44
2022-11-29T13:21:55.776Z,63.20
2022-11-29T13:24:45.369Z,63.45
2022-11-29T13:27:21.663Z,63.17
2022-11-29T13:29:49.148Z,63.23
2022-11-29T13:32:30.501Z,63.33
2022-11-29T13:35:03.230Z,63.28
2022-11-29T13:37:44.487Z,63.33
2022-11-29T13:40:23.177Z,63.26
2022-11-29T13:43:02.990Z,63.21
2022-11-29T13:45:29.826Z,63.36
2022-11-29T13:48:00.230Z,63.33
2022-11-29T13:50:41.834Z,63.23
2022-11-29T13:53:23.957Z,63.19
2022-11-29T13:56:02.771Z,63.42
2022-11-29T13:58:30.929Z,63.46
2022-11-29T14:01:11.527Z,63.22
2022-11-29T14:03:41.659Z,63.20
2022-11-29T14:06:12.377Z,63.03
2022-11-29T14:12:21.499Z,63.12
2022-11-29T14:14:58.604Z,63.12
2022-11-29T14:17:34.020Z,63.19
2022-11-29T14:20:22.767Z,63.19
2022-11-29T14:23:12.644Z,63.14
2022-11-29T14:26:09.207Z,63.13
2022-11-29T14:28:40.709Z,63.19
2022-11-29T14:31:10.896Z,63.09
2022-11-29T14:33:46.643Z,63.18
2022-11-29T14:36:13.374Z,63.27
2022-11-29T14:38:49.242Z,63.48
2022-11-29T14:41:39.813Z,63.35
2022-11-29T14:44:24.271Z,63.40
2022-11-29T14:47:06.597Z,63.32
2022-11-29T14:49:54.448Z,63.15
2022-11-29T14:52:38.046Z,63.22
2022-11-29T14:55:29.606Z,63.05
2022-11-29T14:58:03.805Z,62.95
2022-11-29T15:00:42.665Z,62.92
2022-11-29T15:03:28.531Z,63.13
2022-11-29T15:06:06.361Z,63.21
2022-11-29T15:08:35.564Z,63.02
2022-11-29T15:11:11.371Z,63.18
2022-11-29T15:13:47.916Z,63.14
2022-11-29T15:16:58.381Z,63.45
2022-11-29T15:19:46.426Z,63.42
2022-11-29T15:22:45.020Z,63.12
2022-11-29T15:25:14.635Z,63.00
2022-11-29T15:27:52.964Z,62.92
2022-11-29T15:30:41.233Z,63.12
2022-11-29T15:33:22.396Z,62.64
2022-11-29T15:35:54.980Z,62.92
2022-11-29T15:38:23.692Z,62.85
2022-11-29T15:40:53.327Z,63.26
2022-11-29T15:43:22.981Z,63.27
2022-11-29T15:45:51.712Z,63.42
2022-11-29T15:48:18.644Z,63.31
2022-11-29T15:50:51.165Z,63.17
2022-11-29T15:53:26.292Z,63.13
2022-11-29T15:55:56.673Z,63.21
2022-11-29T15:58:26.157Z,62.89
2022-11-29T16:00:54.063Z,62.99
2022-11-29T16:03:27.502Z,63.13
2022-11-29T16:06:06.943Z,62.76
2022-11-29T16:08:41.838Z,62.68
2022-11-29T16:11:17.268Z,63.14
2022-11-29T16:14:19.455Z,62.60
2022-11-29T16:16:48.463Z,62.62
2022-11-29T16:19:34.841Z,62.75
2022-11-29T16:22:15.548Z,62.96
2022-11-29T16:25:06.385Z,62.85
2022-11-29T16:27:35.297Z,62.94
2022-11-29T16:30:02.911Z,62.71
2022-11-29T16:32:42.950Z,62.86
2022-11-29T16:35:22.330Z,63.02
2022-11-29T16:37:49.483Z,63.01
2022-11-29T16:40:27.067Z,63.17
2022-11-29T16:43:29.116Z,62.87
2022-11-29T16:46:20.688Z,62.83
2022-11-29T16:48:55.213Z,62.77
2022-11-29T16:51:23.636Z,62.85
2022-11-29T16:53:53.046Z,62.91
2022-11-29T16:56:25.415Z,62.93
2022-11-29T16:59:20.928Z,62.95
2022-11-29T17:01:46.824Z,63.07
2022-11-29T17:04:23.651Z,63.03
2022-11-29T17:06:55.229Z,63.12
2022-11-29T17:09:28.337Z,63.06
2022-11-29T17:11:56.624Z,62.86
2022-11-29T17:14:23.416Z,62.80
2022-11-29T17:16:50.466Z,62.67
2022-11-29T17:19:19.631Z,62.86
2022-11-29T17:21:46.391Z,62.76
2022-11-29T17:24:15.822Z,63.12
2022-11-29T17:26:43.360Z,62.67
2022-11-29T17:29:11.547Z,63.06
2022-11-29T17:31:39.067Z,62.75
2022-11-29T17:34:06.569Z,62.30
2022-11-29T17:36:33.496Z,62.36
2022-11-29T17:39:00.677Z,62.16
2022-11-29T17:41:28.485Z,62.07
2022-11-29T17:43:56.645Z,62.04
2022-11-29T17:46:36.047Z,62.18
2022-11-29T17:49:08.187Z,62.06
2022-11-29T17:51:55.648Z,62.06
2022-11-29T17:54:22.992Z,62.13
2022-11-29T17:56:50.435Z,62.11
2022-11-29T17:59:17.654Z,62.02
2022-11-29T18:01:47.198Z,61.96
2022-11-29T18:04:14.791Z,62.02
2022-11-29T18:06:42.215Z,61.75
2022-11-29T18:09:10.476Z,61.63
2022-11-29T18:11:47.081Z,61.53
2022-11-29T18:14:20.764Z,62.11
2022-11-29T18:16:47.627Z,62.13
2022-11-29T18:19:17.358Z,61.94
2022-11-29T18:21:44.585Z,62.10
2022-11-29T18:24:12.052Z,62.14
2022-11-29T18:26:39.471Z,62.05
2022-11-29T18:29:07.018Z,62.08
2022-11-29T18:31:36.417Z,62.08
2022-11-29T18:34:07.147Z,62.17
2022-11-29T18:36:37.250Z,62.25
2022-11-29T18:39:09.196Z,61.85
2022-11-29T18:41:37.283Z,61.74
2022-11-29T18:44:05.997Z,61.99
2022-11-29T18:46:33.441Z,61.94
2022-11-29T18:49:03.649Z,62.18
2022-11-29T18:51:31.462Z,62.31
2022-11-29T18:53:59.242Z,61.96
2022-11-29T18:56:28.726Z,61.99
2022-11-29T18:58:59.712Z,61.84
2022-11-29T19:01:29.085Z,61.86
2022-11-29T19:03:58.687Z,61.85
2022-11-29T19:06:38.553Z,61.68
2022-11-29T19:09:07.383Z,61.85
2022-11-29T19:11:35.036Z,62.00
2022-11-29T19:14:11.419Z,62.03
2022-11-29T19:16:40.530Z,62.01
2022-11-29T19:19:07.484Z,61.97
2022-11-29T19:21:34.881Z,61.85
2022-11-29T19:24:04.183Z,61.86
2022-11-29T19:26:32.596Z,62.05
2022-11-29T19:29:00.828Z,61.89
2022-11-29T19:31:28.699Z,62.19
2022-11-29T19:33:56.885Z,61.91
2022-11-29T19:36:26.002Z,61.85
2022-11-29T19:38:54.096Z,61.78
2022-11-29T19:41:24.185Z,61.91
2022-11-29T19:43:52.205Z,61.87
2022-11-29T19:46:30.865Z,62.17
2022-11-29T19:48:59.798Z,62.07
2022-11-29T19:51:28.437Z,61.99
2022-11-29T19:54:01.157Z,61.97
2022-11-29T19:56:28.934Z,61.86
2022-11-29T19:58:56.186Z,62.06
2022-11-29T20:01:28.085Z,62.10
2022-11-29T20:03:56.549Z,61.99
2022-11-29T20:06:24.276Z,61.98
2022-11-29T20:08:51.255Z,62.23
2022-11-29T20:11:20.613Z,62.07
2022-11-29T20:13:56.737Z,62.09
2022-11-29T20:16:26.987Z,62.15
2022-11-29T20:18:54.903Z,62.32
2022-11-29T20:21:29.702Z,62.20
2022-11-29T20:24:02.250Z,62.46
2022-11-29T20:26:33.192Z,62.50
2022-11-29T20:29:01.822Z,62.28
2022-11-29T20:31:28.965Z,62.07
2022-11-29T20:33:57.555Z,62.16
2022-11-29T20:37:01.283Z,62.24
2022-11-29T20:39:28.975Z,62.16
2022-11-29T20:42:29.617Z,62.18
2022-11-29T20:44:58.425Z,62.39
2022-11-29T20:47:28.081Z,62.30
2022-11-29T20:49:55.262Z,62.40
2022-11-29T20:52:41.954Z,62.44
2022-11-29T20:55:09.272Z,62.57
2022-11-29T20:57:38.389Z,62.28
2022-11-29T21:00:07.569Z,62.51
2022-11-29T21:02:34.413Z,62.38
2022-11-29T21:05:01.145Z,62.50
2022-11-29T21:07:29.360Z,62.71
2022-11-29T21:10:00.954Z,62.65
2022-11-29T21:12:30.037Z,62.79
2022-11-29T21:14:57.615Z,62.78
2022-11-29T21:17:30.199Z,62.91
2022-11-29T21:20:00.535Z,63.02
2022-11-29T21:23:02.793Z,63.12
2022-11-29T21:25:37.677Z,63.31
2022-11-29T21:28:10.899Z,63.23
2022-11-29T21:30:38.352Z,63.51
2022-11-29T21:33:05.540Z,63.40
2022-11-29T21:35:32.357Z,63.26
2022-11-29T21:38:00.866Z,63.40
2022-11-29T21:40:28.433Z,63.36
2022-11-29T21:42:55.148Z,63.39
2022-11-29T21:45:22.004Z,63.35
2022-11-29T21:47:48.703Z,63.19
2022-11-29T21:50:15.572Z,63.40
2022-11-29T21:52:44.307Z,63.38
2022-11-29T21:55:11.281Z,63.21
2022-11-29T21:57:39.469Z,63.38
2022-11-29T22:00:06.880Z,63.30
2022-11-29T22:02:33.839Z,63.43
2022-11-29T22:05:00.821Z,63.42
2022-11-29T22:07:27.719Z,63.56
2022-11-29T22:09:54.564Z,63.54
2022-11-29T22:12:35.227Z,63.86
2022-11-29T22:15:02.243Z,62.85
2022-11-29T22:17:54.112Z,62.77
2022-11-29T22:20:21.026Z,62.72
2022-11-29T22:22:48.707Z,62.96
2022-11-29T22:25:15.811Z,62.68
2022-11-29T22:27:42.673Z,63.02
2022-11-29T22:30:09.850Z,62.74
2022-11-29T22:32:36.657Z,62.77
2022-11-29T22:35:03.696Z,62.87
2022-11-29T22:37:30.668Z,62.78
2022-11-29T22:39:57.974Z,63.14
2022-11-29T22:42:25.242Z,63.46
2022-11-29T22:44:52.206Z,63.47
2022-11-29T22:47:19.019Z,63.57
2022-11-29T22:49:45.970Z,63.62
2022-11-29T22:52:12.934Z,63.92
2022-11-29T22:54:39.923Z,63.75
2022-11-29T22:57:06.760Z,63.76
2022-11-29T22:59:33.676Z,63.55
2022-11-29T23:02:00.364Z,63.35
2022-11-29T23:04:27.239Z,63.41
2022-11-29T23:06:54.112Z,63.31
2022-11-29T23:09:22.548Z,63.35
2022-11-29T23:11:55.869Z,63.30
2022-11-29T23:14:23.672Z,63.43
2022-11-29T23:16:50.835Z,63.44
2022-11-29T23:19:17.775Z,63.50
2022-11-29T23:21:45.915Z,63.62
2022-11-29T23:24:14.778Z,63.59
2022-11-29T23:26:45.210Z,63.83
2022-11-29T23:29:14.868Z,63.72
2022-11-29T23:31:41.985Z,63.77
2022-11-29T23:34:09.427Z,63.72
2022-11-29T23:36:36.251Z,63.91
2022-11-29T23:39:04.736Z,64.02
2022-11-29T23:41:31.738Z,64.19
2022-11-29T23:43:59.766Z,64.11
2022-11-29T23:46:26.929Z,63.98
2022-11-29T23:48:54.009Z,64.03
2022-11-29T23:51:21.153Z,63.87
2022-11-29T23:53:52.499Z,63.92
2022-11-29T23:56:20.679Z,63.84
2022-11-29T23:58:47.997Z,64.04
